Time;durP1;ratioP1;P1;durP2;ratioP2;P2;SDS_P1;SDS_P2;PMS_P1;PMS_P2;Temp;Humidity;BMP_temperature;BMP_pressure;BME280_temperature;BME280_humidity;BME280_pressure;Samples;Min_cycle;Max_cycle;Signal;HPM_P1;HPM_P2
2022/04/19 00:01:30;;;;;;;71.35;38.92;;;;;;;-0.39;77.89;94004.67;1705812;83;20975;-48
2022/04/19 00:03:57;;;;;;;76.95;37.00;;;;;;;-0.43;77.68;94010.09;1703474;83;21002;-48
2022/04/19 00:06:24;;;;;;;78.85;40.45;;;;;;;-0.48;77.61;94004.33;1707159;83;21025;-49
2022/04/19 00:08:52;;;;;;;68.75;33.83;;;;;;;-0.51;77.97;94007.82;1708709;83;21077;-49
2022/04/19 00:11:19;;;;;;;73.45;37.83;;;;;;;-0.47;78.10;94007.21;1698693;83;20998;-48
2022/04/19 00:13:46;;;;;;;78.50;40.85;;;;;;;-0.44;78.21;94001.05;1715692;83;21138;-49
2022/04/19 00:16:14;;;;;;;89.17;45.23;;;;;;;-0.44;77.81;93996.99;1699185;83;21076;-48
2022/04/19 00:18:41;;;;;;;78.47;41.48;;;;;;;-0.47;77.82;93999.11;1704739;83;20962;-47
2022/04/19 00:21:08;;;;;;;81.30;42.73;;;;;;;-0.51;77.89;93995.66;1696817;83;21204;-48
2022/04/19 00:23:38;;;;;;;64.35;33.90;;;;;;;-0.57;77.99;93993.20;1689416;83;20963;-49
2022/04/19 00:26:04;;;;;;;49.60;30.30;;;;;;;-0.64;78.11;93991.88;1699961;83;21118;-49
2022/04/19 00:28:33;;;;;;;64.17;30.80;;;;;;;-0.76;78.02;93991.75;1692115;83;21148;-49
2022/04/19 00:30:59;;;;;;;86.50;43.92;;;;;;;-0.87;78.15;94000.50;1701966;83;21019;-48
2022/04/19 00:33:27;;;;;;;93.90;44.30;;;;;;;-0.95;78.38;93990.88;1710529;83;21269;-47
2022/04/19 00:35:54;;;;;;;98.60;47.90;;;;;;;-1.01;78.44;93988.98;1705732;83;21540;-48
2022/04/19 00:38:21;;;;;;;89.55;44.80;;;;;;;-1.03;78.67;93992.65;1704550;83;21022;-48
2022/04/19 00:40:49;;;;;;;75.42;37.63;;;;;;;-1.00;78.91;93990.54;1705991;83;21022;-48
2022/04/19 00:43:18;;;;;;;60.60;33.20;;;;;;;-0.98;78.79;93992.27;1713036;83;21450;-47
2022/04/19 00:45:45;;;;;;;63.20;32.03;;;;;;;-0.99;78.67;93985.33;1693296;83;21180;-49
2022/04/19 00:48:12;;;;;;;54.45;28.60;;;;;;;-1.00;78.42;93990.54;1712892;83;21042;-49
2022/04/19 00:50:41;;;;;;;51.92;28.50;;;;;;;-1.02;78.50;93988.78;1708064;83;21113;-48
2022/04/19 00:53:11;;;;;;;72.17;38.60;;;;;;;-1.03;78.46;93993.43;1705382;83;20986;-48
2022/04/19 00:55:38;;;;;;;86.63;43.98;;;;;;;-1.02;78.60;93990.14;1696209;83;20981;-49
2022/04/19 00:58:06;;;;;;;94.95;44.67;;;;;;;-1.01;78.45;93996.50;1681855;83;22069;-47
2022/04/19 01:00:33;;;;;;;89.85;46.85;;;;;;;-1.06;78.54;93992.09;1690902;83;21003;-48
2022/04/19 01:03:03;;;;;;;98.85;47.43;;;;;;;-1.12;78.57;93989.02;1699620;83;21474;-49
2022/04/19 01:05:30;;;;;;;95.30;50.03;;;;;;;-1.15;78.80;93993.10;1699891;83;21492;-49
2022/04/19 01:07:59;;;;;;;96.80;48.58;;;;;;;-1.18;78.88;93991.19;1703430;83;21007;-50
2022/04/19 01:10:27;;;;;;;91.40;45.55;;;;;;;-1.18;79.10;93986.55;1705102;83;21537;-48
2022/04/19 01:15:49;;;;;;;90.67;46.13;;;;;;;-1.22;79.20;93975.58;1696616;83;21097;-48
2022/04/19 01:18:24;;;;;;;126.05;62.73;;;;;;;-1.27;79.20;93975.98;1687357;83;21020;-48
2022/04/19 01:20:49;;;;;;;121.90;59.30;;;;;;;-1.35;79.25;93975.83;1697240;83;21026;-48
2022/04/19 01:23:21;;;;;;;95.85;47.53;;;;;;;-1.39;79.64;93976.41;1699378;84;20979;-48
2022/04/19 01:25:48;;;;;;;104.45;48.98;;;;;;;-1.43;79.59;93972.39;1695305;83;20958;-49
2022/04/19 01:28:19;;;;;;;101.38;47.13;;;;;;;-1.47;79.63;93974.30;1706552;83;20967;-48
2022/04/19 01:30:55;;;;;;;97.45;44.88;;;;;;;-1.47;79.84;93980.30;1688729;83;20990;-48
2022/04/19 01:33:23;;;;;;;112.92;52.17;;;;;;;-1.49;79.85;93975.27;1711552;83;21049;-47
2022/04/19 01:35:51;;;;;;;120.40;53.42;;;;;;;-1.51;79.77;93972.20;1703083;83;21886;-48
2022/04/19 01:38:19;;;;;;;101.50;45.80;;;;;;;-1.53;79.78;93967.78;1691218;83;20981;-46
2022/04/19 01:40:46;;;;;;;75.83;39.48;;;;;;;-1.55;79.89;93963.92;1706518;83;21437;-47
2022/04/19 01:43:15;;;;;;;83.75;42.03;;;;;;;-1.59;79.87;93963.17;1670086;83;21168;-48
2022/04/19 01:45:53;;;;;;;81.05;39.42;;;;;;;-1.61;80.01;93966.84;1697755;83;21109;-49
2022/04/19 01:48:21;;;;;;;74.20;36.95;;;;;;;-1.62;80.10;93962.61;1692343;83;21905;-49
2022/04/19 01:50:48;;;;;;;72.35;37.38;;;;;;;-1.65;80.10;93964.73;1701863;83;20941;-48
2022/04/19 01:53:15;;;;;;;79.97;38.08;;;;;;;-1.71;80.07;93960.31;1695241;83;21057;-49
2022/04/19 01:55:44;;;;;;;71.60;38.63;;;;;;;-1.77;80.13;93964.57;1706481;83;21026;-48
2022/04/19 01:58:13;;;;;;;105.70;50.45;;;;;;;-1.76;80.36;93965.33;1704545;83;21026;-49
2022/04/19 02:00:41;;;;;;;94.17;53.75;;;;;;;-1.77;80.37;93962.44;1689680;83;21309;-48
2022/04/19 02:03:10;;;;;;;101.33;52.90;;;;;;;-1.70;80.69;93962.45;1700855;83;20979;-49
2022/04/19 02:05:37;;;;;;;83.45;42.20;;;;;;;-1.67;80.56;93967.81;1702684;83;21031;-48
2022/04/19 02:08:04;;;;;;;80.00;39.95;;;;;;;-1.61;80.38;93962.80;1666935;83;21517;-48
2022/04/19 02:10:34;;;;;;;84.77;39.08;;;;;;;-1.59;80.14;93963.17;1705759;83;21509;-49
2022/04/19 02:13:03;;;;;;;94.42;41.28;;;;;;;-1.58;79.97;93962.80;1709409;83;21127;-48
2022/04/19 02:15:37;;;;;;;95.83;38.50;;;;;;;-1.55;79.82;93962.58;1698365;82;20970;-49
2022/04/19 02:18:13;;;;;;;84.55;36.98;;;;;;;-1.54;79.62;93957.41;1697558;83;21006;-49
2022/04/19 02:20:40;;;;;;;79.03;37.10;;;;;;;-1.57;79.26;93954.11;1702914;83;21035;-48
2022/04/19 02:23:08;;;;;;;90.53;38.75;;;;;;;-1.61;79.07;93950.66;1692620;83;21029;-50
2022/04/19 02:25:35;;;;;;;80.00;38.15;;;;;;;-1.61;79.23;93951.45;1700837;83;21158;-49
2022/04/19 02:28:06;;;;;;;81.22;39.42;;;;;;;-1.62;79.03;93951.83;1692068;83;21470;-48
2022/04/19 02:30:34;;;;;;;82.20;38.88;;;;;;;-1.65;78.88;93946.62;1696460;83;21014;-49
2022/04/19 02:33:02;;;;;;;91.12;42.30;;;;;;;-1.68;78.90;93948.00;1699166;83;21033;-53
2022/04/19 02:35:31;;;;;;;69.35;37.90;;;;;;;-1.68;78.92;93948.00;1691585;83;21559;-49
2022/04/19 02:38:00;;;;;;;83.25;40.15;;;;;;;-1.70;78.78;93959.75;1685832;83;21290;-49
2022/04/19 02:40:29;;;;;;;110.97;57.70;;;;;;;-1.77;78.89;93959.18;1684106;83;21085;-48
2022/04/19 02:42:59;;;;;;;97.40;52.50;;;;;;;-1.75;79.25;93960.12;1707210;83;20945;-48
2022/04/19 02:45:26;;;;;;;99.22;49.48;;;;;;;-1.68;79.32;93958.19;1688894;83;21426;-48
2022/04/19 02:48:08;;;;;;;108.63;56.30;;;;;;;-1.63;78.90;93959.72;1697965;83;21030;-48
2022/04/19 02:50:44;;;;;;;64.87;33.83;;;;;;;-1.65;78.72;93963.39;1694888;83;21182;-49
2022/04/19 02:53:13;;;;;;;;;;;;;;;-1.63;78.85;93963.20;1702396;83;21030;-49
2022/04/19 02:55:42;;;;;;;56.75;28.70;;;;;;;-1.58;78.60;93966.05;1696548;83;20412;-49
2022/04/19 02:58:10;;;;;;;42.13;22.52;;;;;;;-1.59;78.14;93965.30;1715710;83;20993;-49
2022/04/19 03:00:39;;;;;;;44.13;23.85;;;;;;;-1.63;77.92;93967.25;1704407;83;21041;-49
2022/04/19 03:03:10;;;;;;;51.18;24.57;;;;;;;-1.61;78.06;93966.27;1704073;83;21109;-49
2022/04/19 03:05:40;;;;;;;48.35;26.23;;;;;;;-1.55;77.98;93963.92;1702718;83;21003;-48
2022/04/19 03:08:08;;;;;;;44.88;24.35;;;;;;;-1.54;77.58;93966.84;1696179;83;20987;-49
2022/04/19 03:10:36;;;;;;;43.50;24.43;;;;;;;-1.57;77.32;93971.64;1688267;83;21078;-48
2022/04/19 03:13:05;;;;;;;65.70;32.63;;;;;;;-1.62;77.07;93970.70;1687914;83;21521;-49
2022/04/19 03:15:36;;;;;;;61.85;32.08;;;;;;;-1.69;77.00;93975.52;1698592;83;21558;-49
2022/04/19 03:18:05;;;;;;;45.12;24.00;;;;;;;-1.70;77.05;93979.97;1698286;83;21081;-48
2022/04/19 03:20:35;;;;;;;42.67;22.42;;;;;;;-1.75;77.03;93989.21;1698195;83;21064;-49
2022/04/19 03:28:37;;;;;;;29.40;16.82;;;;;;;-1.83;77.45;93988.26;1676110;83;21204;-48
2022/04/19 03:31:04;;;;;;;32.17;20.82;;;;;;;-1.85;77.21;93990.58;1696475;83;20997;-48
2022/04/19 03:33:32;;;;;;;48.33;25.80;;;;;;;-1.94;77.15;93988.84;1694208;83;20963;-48
2022/04/19 03:35:59;;;;;;;56.33;30.35;;;;;;;-2.03;77.08;93996.55;1698411;83;21137;-49
2022/04/19 03:38:28;;;;;;;53.80;30.00;;;;;;;-2.11;77.15;93999.05;1708758;83;21026;-48
2022/04/19 03:40:56;;;;;;;70.25;33.65;;;;;;;-2.16;77.21;94004.83;1699899;83;21311;-49
2022/04/19 03:43:23;;;;;;;68.70;31.10;;;;;;;-2.21;77.35;93992.31;1674281;83;21185;-49
2022/04/19 03:45:52;;;;;;;66.05;34.13;;;;;;;-2.21;77.63;94005.22;1706014;83;21521;-50
2022/04/19 03:48:19;;;;;;;150.10;67.87;;;;;;;-2.20;77.64;94001.36;1701171;83;21085;-49
2022/04/19 03:50:47;;;;;;;152.57;73.95;;;;;;;-2.25;77.53;93997.72;1699928;83;21479;-49
2022/04/19 03:53:15;;;;;;;123.78;54.48;;;;;;;-2.30;77.75;93992.69;1671082;83;22041;-47
2022/04/19 03:55:41;;;;;;;87.12;43.05;;;;;;;-2.26;78.21;93990.80;1712487;83;21601;-48
2022/04/19 03:58:09;;;;;;;98.07;44.88;;;;;;;-2.14;78.08;94000.41;1712873;83;21091;-49
2022/04/19 04:00:38;;;;;;;82.82;42.43;;;;;;;-2.14;77.99;94006.55;1709207;83;21010;-47
2022/04/19 04:03:06;;;;;;;100.97;47.62;;;;;;;-2.13;77.92;94001.36;1705576;83;21049;-48
2022/04/19 04:05:35;;;;;;;127.78;49.38;;;;;;;-2.12;77.99;94001.55;1681093;83;21190;-49
2022/04/19 04:08:02;;;;;;;99.37;46.98;;;;;;;-2.07;78.15;94001.74;1709798;83;21057;-48
2022/04/19 04:10:32;;;;;;;82.30;43.28;;;;;;;-1.99;78.33;94001.36;1704655;83;21026;-48
2022/04/19 04:13:00;;;;;;;73.97;39.88;;;;;;;-1.88;78.36;94002.13;1697638;83;20983;-48
2022/04/19 04:15:27;;;;;;;110.70;46.68;;;;;;;-1.78;78.17;93995.95;1691468;83;20972;-48
2022/04/19 04:17:54;;;;;;;72.35;40.50;;;;;;;-1.73;77.97;94005.77;1698935;83;21269;-50
2022/04/19 04:20:23;;;;;;;95.20;44.85;;;;;;;-1.70;77.82;94005.58;1712304;83;21010;-49
2022/04/19 04:22:50;;;;;;;121.77;52.85;;;;;;;-1.70;77.65;94006.33;1681255;83;20966;-48
2022/04/19 04:25:18;;;;;;;108.32;50.08;;;;;;;-1.69;77.69;94011.16;1693428;83;21022;-48
2022/04/19 04:27:46;;;;;;;95.45;50.25;;;;;;;-1.66;77.77;94011.73;1694000;83;21241;-50
2022/04/19 04:30:13;;;;;;;85.60;44.63;;;;;;;-1.62;77.83;94008.44;1692837;83;21556;-49
2022/04/19 04:32:43;;;;;;;72.85;40.12;;;;;;;-1.53;77.85;94009.58;1678661;84;21117;-49
2022/04/19 04:35:10;;;;;;;65.75;38.60;;;;;;;-1.35;77.81;94016.29;1700215;83;21449;-48
2022/04/19 04:37:38;;;;;;;75.08;42.65;;;;;;;-1.17;77.95;94007.56;1705199;83;20960;-48
2022/04/19 04:40:09;;;;;;;155.37;72.25;;;;;;;-1.08;77.85;94009.25;1695030;83;21537;-51
2022/04/19 04:42:56;;;;;;;60.25;34.10;;;;;;;-0.96;78.15;94009.59;1709164;83;21164;-49
2022/04/19 04:45:23;;;;;;;54.08;33.58;;;;;;;-0.74;77.56;94008.32;1666482;83;21047;-50
2022/04/19 04:50:35;;;;;;;78.22;37.45;;;;;;;-0.67;76.55;93999.42;1707107;83;21085;-54
2022/04/19 04:53:04;;;;;;;72.97;29.60;;;;;;;-0.54;76.58;94005.91;1692345;82;21037;-55
2022/04/19 04:55:31;;;;;;;43.95;25.08;;;;;;;-0.45;75.89;94008.36;1671510;83;21086;-57
2022/04/19 04:58:01;;;;;;;43.80;26.70;;;;;;;-0.38;75.38;94003.50;1671889;83;20974;-49
2022/04/19 05:00:28;;;;;;;41.68;24.47;;;;;;;-0.34;74.66;93996.14;1694255;83;21014;-51
2022/04/19 05:02:57;;;;;;;39.45;22.27;;;;;;;-0.37;74.23;93992.88;1704079;83;21026;-52
2022/04/19 05:05:26;;;;;;;39.18;22.45;;;;;;;-0.38;73.99;93985.95;1686478;83;21017;-51
2022/04/19 05:07:54;;;;;;;34.80;21.07;;;;;;;-0.38;73.83;93985.95;1702600;83;21332;-50
2022/04/19 05:10:23;;;;;;;55.75;22.93;;;;;;;-0.35;73.66;93987.28;1713622;83;20975;-49
2022/04/19 05:12:50;;;;;;;53.20;25.50;;;;;;;-0.34;73.53;93994.22;1708297;83;21612;-51
2022/04/19 05:15:20;;;;;;;40.70;22.87;;;;;;;-0.28;73.49;93995.89;1694745;83;21233;-49
2022/04/19 05:17:49;;;;;;;67.65;35.75;;;;;;;-0.19;73.30;93995.63;1678463;83;21018;-50
2022/04/19 05:20:16;;;;;;;55.35;29.55;;;;;;;-0.10;73.27;93995.19;1692213;83;21330;-51
2022/04/19 05:22:43;;;;;;;54.18;30.10;;;;;;;0.03;73.04;93996.44;1670540;84;21224;-50
2022/04/19 05:25:10;;;;;;;51.77;27.32;;;;;;;0.20;72.95;93991.47;1693057;83;21073;-50
2022/04/19 05:27:38;;;;;;;60.92;27.98;;;;;;;0.35;72.73;93990.17;1692863;83;21030;-51
2022/04/19 05:30:07;;;;;;;57.53;29.07;;;;;;;0.51;72.24;93984.22;1695912;83;20993;-50
2022/04/19 05:32:35;;;;;;;53.42;27.65;;;;;;;0.65;71.66;93983.51;1678354;84;21034;-51
2022/04/19 05:35:05;;;;;;;44.75;26.17;;;;;;;0.76;71.31;93985.50;1658798;85;21026;-52
2022/04/19 05:37:35;;;;;;;42.95;25.30;;;;;;;0.90;70.58;93985.92;1701389;83;21516;-51
2022/04/19 05:40:05;;;;;;;40.52;20.72;;;;;;;0.93;69.75;93989.95;1645843;85;21566;-52
2022/04/19 05:42:34;;;;;;;39.80;22.23;;;;;;;0.92;69.15;93989.77;1668455;84;21671;-49
2022/04/19 05:45:03;;;;;;;34.25;19.75;;;;;;;0.94;68.82;93994.19;1667537;83;22585;-50
2022/04/19 05:47:33;;;;;;;30.15;17.12;;;;;;;0.99;68.17;93995.09;1691116;82;21657;-50
2022/04/19 05:49:59;;;;;;;18.15;14.00;;;;;;;0.98;67.84;93992.20;1688908;82;21064;-51
2022/04/19 05:52:27;;;;;;;22.42;15.43;;;;;;;0.97;67.43;93987.21;1689173;83;21020;-52
2022/04/19 05:54:58;;;;;;;32.03;18.65;;;;;;;1.00;67.38;93992.56;1677467;83;20954;-55
2022/04/19 05:57:25;;;;;;;43.35;21.70;;;;;;;1.09;67.25;93992.86;1684199;83;21184;-51
2022/04/19 05:59:52;;;;;;;33.30;20.20;;;;;;;1.22;67.17;93991.16;1679497;82;21446;-54
2022/04/19 06:05:10;;;;;;;34.45;20.95;;;;;;;1.72;66.83;93992.01;1673279;83;21035;-52
2022/04/19 06:07:44;;;;;;;40.90;21.45;;;;;;;1.86;65.99;93995.87;1671493;83;21058;-54
2022/04/19 06:10:11;;;;;;;36.50;20.00;;;;;;;1.91;65.62;93994.83;1667321;84;21151;-51
2022/04/19 06:12:39;;;;;;;31.75;19.52;;;;;;;2.03;65.03;93990.78;1663218;83;21938;-53
2022/04/19 06:15:09;;;;;;;35.28;20.27;;;;;;;2.11;64.12;93982.72;1670101;83;21015;-51
2022/04/19 06:17:38;;;;;;;26.70;16.65;;;;;;;2.22;63.86;93991.44;1659574;83;21065;-51
2022/04/19 06:20:15;;;;;;;22.58;15.08;;;;;;;2.26;63.30;93982.65;1681271;83;21176;-54
2022/04/19 06:22:44;;;;;;;35.98;17.20;;;;;;;2.31;63.64;93991.70;1671224;83;21509;-51
2022/04/19 06:25:14;;;;;;;28.40;15.15;;;;;;;2.53;63.86;93990.16;1635579;85;21073;-52
2022/04/19 06:27:41;;;;;;;20.05;15.35;;;;;;;2.78;63.58;93993.19;1656333;85;21520;-52
2022/04/19 06:30:11;;;;;;;22.07;14.18;;;;;;;3.01;63.12;93986.34;1656184;84;21228;-52
2022/04/19 06:32:40;;;;;;;18.75;14.13;;;;;;;3.14;61.82;93985.33;1662158;85;21109;-54
2022/04/19 06:35:08;;;;;;;19.00;12.25;;;;;;;3.13;60.87;93988.44;1636071;85;21258;-53
2022/04/19 06:37:36;;;;;;;17.15;12.10;;;;;;;3.09;61.36;93981.71;1658704;84;21155;-51
2022/04/19 06:40:09;;;;;;;16.73;11.43;;;;;;;3.18;61.09;93979.22;1661202;84;21008;-53
2022/04/19 06:42:39;;;;;;;19.40;11.35;;;;;;;3.25;60.64;93981.78;1644069;84;21056;-50
2022/04/19 06:45:16;;;;;;;14.35;8.95;;;;;;;3.37;60.59;93976.30;1598370;88;21048;-54
2022/04/19 06:48:01;;;;;;;21.40;9.85;;;;;;;3.49;60.23;93975.09;1630816;86;21263;-54
2022/04/19 06:50:31;;;;;;;11.57;9.35;;;;;;;3.59;60.33;93975.44;1641164;84;21101;-52
2022/04/19 06:53:00;;;;;;;18.05;11.57;;;;;;;3.73;60.40;93970.45;1647722;85;21560;-52
2022/04/19 06:55:32;;;;;;;15.28;9.30;;;;;;;3.87;59.99;93964.70;1648462;84;21510;-52
2022/04/19 06:58:00;;;;;;;14.33;10.65;;;;;;;4.05;59.46;93966.42;1652186;85;21080;-52
2022/04/19 07:00:27;;;;;;;21.00;11.95;;;;;;;4.16;59.05;93960.73;1656862;85;21193;-54
2022/04/19 07:02:54;;;;;;;16.97;11.40;;;;;;;4.28;58.92;93970.33;1625275;85;21667;-53
2022/04/19 07:05:44;;;;;;;18.27;13.30;;;;;;;4.44;58.41;93968.97;1611598;86;21106;-55
2022/04/19 07:08:13;;;;;;;22.17;14.45;;;;;;;4.54;58.20;93969.90;1627181;85;21022;-53
2022/04/19 07:10:49;;;;;;;28.73;17.70;;;;;;;4.64;57.43;93966.16;1668349;84;21114;-55
2022/04/19 07:13:27;;;;;;;21.27;14.20;;;;;;;4.69;57.65;93965.05;1665572;83;21359;-54
2022/04/19 07:15:56;;;;;;;23.50;13.50;;;;;;;4.75;57.02;93963.32;1668186;83;21048;-56
2022/04/19 07:18:25;;;;;;;28.25;15.18;;;;;;;4.78;56.54;93963.82;1667323;83;21064;-54
2022/04/19 07:26:38;;;;;;;23.45;12.55;;;;;;;5.07;56.37;93956.44;1669829;83;21184;-54
2022/04/19 07:29:11;;;;;;;17.27;10.98;;;;;;;5.35;56.77;93958.36;1650560;84;21061;-55
2022/04/19 07:31:40;;;;;;;12.55;9.83;;;;;;;5.67;56.90;93953.53;1649131;83;21116;-51
2022/04/19 07:34:10;;;;;;;13.38;10.70;;;;;;;5.95;55.78;93953.31;1671698;83;21130;-52
2022/04/19 07:36:39;;;;;;;11.75;10.10;;;;;;;6.20;56.07;93951.93;1676048;83;21057;-54
2022/04/19 07:39:12;;;;;;;67.65;13.78;;;;;;;6.48;55.63;93946.94;1665269;83;21365;-54
2022/04/19 07:41:47;;;;;;;24.50;11.22;;;;;;;6.68;54.93;93947.44;1675366;83;21184;-52
2022/04/19 07:44:18;;;;;;;17.15;11.60;;;;;;;6.95;53.92;93936.14;1622601;86;21117;-56
2022/04/19 07:46:44;;;;;;;14.53;10.28;;;;;;;7.21;53.93;93943.80;1676096;83;21106;-54
2022/04/19 07:49:12;;;;;;;11.40;9.08;;;;;;;7.44;53.37;93942.57;1681002;83;21171;-54
2022/04/19 07:51:43;;;;;;;14.68;11.65;;;;;;;7.64;51.98;93938.30;1675800;83;21211;-52
2022/04/19 07:54:11;;;;;;;21.62;13.20;;;;;;;7.88;51.89;93938.58;1673555;83;21103;-51
2022/04/19 07:56:39;;;;;;;11.55;9.45;;;;;;;8.10;51.66;93931.07;1649839;84;21069;-54
2022/04/19 07:59:07;;;;;;;17.98;9.63;;;;;;;8.22;50.94;93927.50;1684472;83;21010;-54
2022/04/19 08:01:35;;;;;;;13.60;9.10;;;;;;;8.34;49.73;93927.98;1672536;83;21029;-55
2022/04/19 08:04:05;;;;;;;10.20;8.10;;;;;;;8.45;48.76;93920.11;1679076;83;21013;-54
2022/04/19 08:06:32;;;;;;;11.03;8.25;;;;;;;8.61;47.47;93919.22;1672040;83;21100;-59
2022/04/19 08:09:01;;;;;;;12.28;6.55;;;;;;;8.73;46.56;93927.16;1672093;83;21088;-53
2022/04/19 08:11:30;;;;;;;9.88;6.75;;;;;;;8.80;44.93;93924.88;1682366;83;21008;-54
2022/04/19 08:13:58;;;;;;;9.45;6.62;;;;;;;8.88;45.89;93919.27;1690024;83;21250;-53
2022/04/19 08:16:26;;;;;;;9.43;6.45;;;;;;;9.05;43.81;93915.77;1675796;83;21051;-54
2022/04/19 08:18:55;;;;;;;6.55;5.90;;;;;;;9.13;44.22;93914.85;1676000;84;21102;-55
2022/04/19 08:21:22;;;;;;;5.70;5.20;;;;;;;9.25;44.02;93918.06;1668564;83;22506;-54
2022/04/19 08:23:51;;;;;;;8.50;6.53;;;;;;;9.35;44.36;93919.56;1655848;84;21107;-53
2022/04/19 08:26:21;;;;;;;8.20;5.72;;;;;;;9.40;43.03;93909.36;1667620;83;21088;-53
2022/04/19 08:28:49;;;;;;;38.40;26.33;;;;;;;9.54;42.93;93914.97;1674469;83;21154;-56
2022/04/19 08:31:17;;;;;;;14.03;12.25;;;;;;;9.71;40.62;93912.64;1679755;83;21486;-55
2022/04/19 08:33:46;;;;;;;12.00;7.28;;;;;;;9.87;42.00;93910.33;1674027;83;21001;-53
2022/04/19 08:36:16;;;;;;;11.97;7.55;;;;;;;10.16;42.08;93915.30;1670165;83;21038;-53
2022/04/19 08:38:46;;;;;;;6.30;5.20;;;;;;;10.42;41.58;93917.16;1662759;83;21037;-54
2022/04/19 08:41:17;;;;;;;7.22;5.58;;;;;;;10.51;41.51;93913.61;1661509;83;22071;-55
2022/04/19 08:43:45;;;;;;;9.88;5.78;;;;;;;10.64;41.78;93906.65;1687876;83;21472;-53
2022/04/19 08:46:13;;;;;;;9.55;5.83;;;;;;;10.84;41.07;93907.57;1680702;83;21002;-56
2022/04/19 08:48:42;;;;;;;12.53;6.85;;;;;;;10.94;40.47;93907.67;1662591;84;21536;-55
2022/04/19 08:51:10;;;;;;;10.38;5.30;;;;;;;10.93;40.39;93907.53;1688556;83;22482;-54
2022/04/19 08:59:08;;;;;;;6.72;4.50;;;;;;;11.05;40.90;93905.16;1668505;82;21612;-54
2022/04/19 09:01:36;;;;;;;6.87;4.95;;;;;;;10.96;40.02;93903.83;1669360;83;21154;-55
2022/04/19 09:04:05;;;;;;;4.85;3.70;;;;;;;10.96;39.66;93901.71;1677886;83;21321;-57
2022/04/19 09:06:55;;;;;;;4.83;4.10;;;;;;;10.95;38.22;93904.31;1672582;83;21248;-52
2022/04/19 09:09:27;;;;;;;5.17;4.78;;;;;;;10.80;39.17;93900.75;1679784;83;21134;-57
2022/04/19 09:12:08;;;;;;;5.20;4.33;;;;;;;10.67;39.97;93896.08;1671707;83;21544;-53
2022/04/19 09:14:37;;;;;;;5.95;4.17;;;;;;;10.77;39.81;93900.31;1671694;83;21025;-58
2022/04/19 09:17:08;;;;;;;6.33;5.20;;;;;;;10.83;39.82;93899.17;1676945;83;21141;-54
2022/04/19 09:19:38;;;;;;;8.18;4.50;;;;;;;10.75;37.97;93891.14;1682770;83;21801;-57
2022/04/19 09:22:09;;;;;;;4.53;4.13;;;;;;;10.63;38.39;93884.50;1677753;83;22171;-55
2022/04/19 09:24:37;;;;;;;10.70;4.50;;;;;;;10.63;38.60;93896.10;1634749;85;21050;-53
2022/04/19 09:27:05;;;;;;;11.57;5.05;;;;;;;10.60;38.12;93896.44;1635106;85;21737;-52
2022/04/19 09:29:32;;;;;;;10.98;8.05;;;;;;;10.48;37.66;93893.89;1623462;86;21618;-52
2022/04/19 09:32:01;;;;;;;18.12;10.85;;;;;;;10.39;36.50;93895.33;1624890;86;21265;-56
2022/04/19 09:34:33;;;;;;;8.35;4.12;;;;;;;10.51;37.95;93893.73;1609033;86;20995;-50
2022/04/19 09:37:12;;;;;;;4.65;3.35;;;;;;;10.71;35.33;93896.66;1643146;85;21080;-54
2022/04/19 09:39:40;;;;;;;14.73;3.92;;;;;;;10.84;34.78;93896.56;1630153;85;21101;-52
2022/04/19 09:42:14;;;;;;;3.87;3.50;;;;;;;10.81;34.42;93889.26;1629471;85;21084;-54
2022/04/19 09:44:42;;;;;;;3.10;2.80;;;;;;;10.75;34.29;93886.23;1625403;86;21329;-55
2022/04/19 09:47:12;;;;;;;3.67;3.37;;;;;;;10.77;34.73;93887.30;1661004;84;21133;-54
2022/04/19 09:49:53;;;;;;;3.35;3.02;;;;;;;10.98;34.12;93891.73;1641003;85;21854;-52
2022/04/19 09:52:29;;;;;;;4.90;3.08;;;;;;;11.11;34.05;93885.38;1626697;86;21057;-52
2022/04/19 09:55:09;;;;;;;5.15;4.55;;;;;;;11.13;34.27;93882.91;1635407;86;20998;-56
2022/04/19 09:57:37;;;;;;;5.42;4.22;;;;;;;11.06;34.37;93884.66;1675129;82;21137;-59
2022/04/19 10:00:10;;;;;;;12.13;4.70;;;;;;;11.16;34.87;93887.47;1673917;83;21551;-54
2022/04/19 10:08:20;;;;;;;6.17;4.08;;;;;;;11.14;35.44;93895.44;1681472;83;21041;-54
2022/04/19 10:10:50;;;;;;;9.38;5.62;;;;;;;11.19;33.45;93886.52;1682173;83;21163;-54
2022/04/19 10:13:20;;;;;;;5.90;3.72;;;;;;;11.42;34.95;93883.58;1650862;84;21058;-54
2022/04/19 10:15:49;;;;;;;5.30;3.17;;;;;;;11.69;33.56;93889.61;1676203;83;22009;-55
2022/04/19 10:18:18;;;;;;;4.22;3.30;;;;;;;12.10;32.52;93891.94;1674539;83;21110;-54
2022/04/19 10:20:58;;;;;;;5.60;3.60;;;;;;;12.44;32.25;93886.45;1655504;84;21127;-54
2022/04/19 10:23:39;;;;;;;4.92;3.47;;;;;;;12.86;32.85;93882.66;1679351;83;22554;-53
2022/04/19 10:26:22;;;;;;;9.07;3.90;;;;;;;13.48;31.92;93882.92;1681230;83;21049;-54
2022/04/19 10:28:55;;;;;;;6.03;3.45;;;;;;;13.99;30.97;93875.39;1687091;82;21065;-53
2022/04/19 10:31:34;;;;;;;5.12;3.72;;;;;;;14.03;31.82;93878.68;1678720;83;21647;-54
2022/04/19 10:34:03;;;;;;;4.83;3.67;;;;;;;14.33;29.52;93869.55;1700469;82;21069;-54
2022/04/19 10:36:40;;;;;;;12.30;3.45;;;;;;;14.78;28.53;93879.78;1668690;83;21133;-53
2022/04/19 10:39:15;;;;;;;5.95;2.90;;;;;;;15.05;28.68;93876.41;1682429;83;21654;-54
2022/04/19 10:41:59;;;;;;;10.48;3.90;;;;;;;14.99;27.72;93868.69;1667566;83;21504;-54
2022/04/19 10:44:41;;;;;;;4.55;3.55;;;;;;;14.81;27.94;93869.09;1667656;83;21006;-54
2022/04/19 10:47:23;;;;;;;3.12;2.80;;;;;;;14.52;28.62;93861.13;1681195;83;21024;-53
2022/04/19 10:50:01;;;;;;;3.40;3.10;;;;;;;14.31;30.11;93868.64;1676039;83;21250;-51
2022/04/19 10:52:43;;;;;;;3.80;2.95;;;;;;;13.92;29.36;93868.92;1661468;85;21133;-54
2022/04/19 10:55:21;;;;;;;4.87;3.80;;;;;;;13.73;29.93;93876.64;1680191;83;21085;-55
2022/04/19 10:58:21;;;;;;;5.00;4.12;;;;;;;13.57;29.96;93868.94;1685103;83;21030;-55
2022/04/19 11:00:53;;;;;;;8.05;6.08;;;;;;;13.36;29.47;93875.75;1691913;83;21180;-53
2022/04/19 11:03:39;;;;;;;4.45;4.00;;;;;;;13.08;29.52;93870.55;1670829;83;21830;-57
2022/04/19 11:06:10;;;;;;;71.97;32.03;;;;;;;12.88;30.61;93873.28;1675857;82;21063;-51
2022/04/19 11:08:37;;;;;;;114.92;95.47;;;;;;;12.76;29.91;93871.00;1651958;83;21149;-54
2022/04/19 11:11:23;;;;;;;21.07;19.07;;;;;;;12.64;29.52;93876.82;1675360;83;21102;-53
2022/04/19 11:14:18;;;;;;;8.25;5.03;;;;;;;12.42;29.12;93875.13;1677680;83;21121;-51
2022/04/19 11:16:50;;;;;;;6.28;3.12;;;;;;;12.27;29.97;93875.78;1687467;83;21148;-55
2022/04/19 11:19:23;;;;;;;5.58;2.90;;;;;;;12.12;29.92;93882.56;1685251;83;21141;-55
2022/04/19 11:21:58;;;;;;;2.70;2.50;;;;;;;12.08;30.62;93879.25;1682238;83;21111;-53
2022/04/19 11:25:06;;;;;;;3.67;3.37;;;;;;;12.27;31.28;93870.90;1672409;84;21044;-52
2022/04/19 11:27:59;;;;;;;4.50;4.10;;;;;;;12.47;31.03;93870.31;1661116;83;21198;-53
2022/04/19 11:30:27;;;;;;;9.20;4.07;;;;;;;12.69;30.75;93867.88;1675565;83;21277;-51
2022/04/19 11:32:56;;;;;;;8.50;3.30;;;;;;;12.80;30.93;93865.25;1691081;83;21148;-51
2022/04/19 11:35:32;;;;;;;29.55;5.37;;;;;;;12.86;31.59;93863.34;1673521;83;21055;-52
2022/04/19 11:37:54;;;;;;;9.40;3.75;;;;;;;12.83;31.87;93864.28;1682426;83;21630;-53
2022/04/19 11:48:51;;;;;;;9.58;3.70;;;;;;;12.37;29.77;93859.27;1673985;83;21035;-52
2022/04/19 11:51:17;;;;;;;15.93;4.30;;;;;;;12.09;30.01;93864.97;1677926;83;21114;-54
2022/04/19 11:53:44;;;;;;;5.10;4.67;;;;;;;11.85;31.08;93864.95;1665077;84;21746;-54
2022/04/19 11:56:11;;;;;;;9.03;5.28;;;;;;;11.73;30.68;93870.89;1651563;83;21891;-53
2022/04/19 11:58:42;;;;;;;6.55;5.78;;;;;;;11.69;30.99;93869.59;1662920;83;20962;-53
2022/04/19 12:01:10;;;;;;;9.50;4.25;;;;;;;11.65;31.31;93868.39;1668738;83;22266;-56
2022/04/19 12:03:40;;;;;;;7.85;7.05;;;;;;;11.68;31.92;93872.95;1678890;83;21611;-56
2022/04/19 12:06:11;;;;;;;7.65;4.35;;;;;;;11.68;30.83;93875.70;1672294;83;21064;-59
2022/04/19 12:08:46;;;;;;;21.07;8.40;;;;;;;11.70;31.15;93872.48;1683413;83;21234;-55
2022/04/19 12:11:28;;;;;;;4.60;3.90;;;;;;;11.69;32.13;93871.70;1677249;83;21042;-54
2022/04/19 12:13:56;;;;;;;8.88;5.78;;;;;;;11.97;32.08;93871.56;1672704;83;21010;-53
2022/04/19 12:16:36;;;;;;;10.75;3.80;;;;;;;12.51;31.24;93872.27;1676900;83;21057;-54
2022/04/19 12:19:08;;;;;;;12.15;3.98;;;;;;;12.92;30.99;93862.78;1620787;84;21067;-54